Wetterdaten: Sonntag, 03.09.2017
Datum Zeit Temp. A. Temp. A. min Temp. A. max Feuchte A. Bod.Feucht 4 Luftdruck Regen Wind Richtung Richtung Sonnenschein ET Solar Taupunkt Windchill Windben Empfang
03.09.2017 00:00 10,8 C 10,8 C 10,9 C 92 % 0 cb 1020,6 hPa 0,0 l/m 0,0 km/h (0 Bft) N 0 0 min 0,000 mm 0 W/m 9,6 C 10,8 C 0,0 km/h (0 Bft) 100,00 %
03.09.2017 00:10 10,7 C 10,7 C 10,8 C 92 % 0 cb 1020,5 hPa 0,0 l/m 0,0 km/h (0 Bft) N 0 0 min 0,000 mm 0 W/m 9,5 C 10,7 C 0,0 km/h (0 Bft) 100,00 %
03.09.2017 00:20 10,6 C 10,6 C 10,7 C 92 % 0 cb 1020,6 hPa 0,0 l/m 0,0 km/h (0 Bft) N 0 0 min 0,000 mm 0 W/m 9,4 C 10,6 C 0,0 km/h (0 Bft) 100,00 %
03.09.2017 00:30 10,4 C 10,4 C 10,6 C 92 % 0 cb 1020,5 hPa 0,0 l/m 0,0 km/h (0 Bft) N 0 0 min 0,000 mm 0 W/m 9,2 C 10,4 C 0,0 km/h (0 Bft) 100,00 %
03.09.2017 00:40 10,2 C 10,2 C 10,4 C 93 % 0 cb 1020,3 hPa 0,0 l/m 0,0 km/h (0 Bft) N 0 0 min 0,000 mm 0 W/m 9,1 C 10,2 C 0,0 km/h (0 Bft) 100,00 %
03.09.2017 00:50 10,1 C 10,1 C 10,2 C 93 % 0 cb 1020,3 hPa 0,0 l/m 0,0 km/h (0 Bft) N 0 0 min 0,000 mm 0 W/m 9,0 C 10,1 C 0,0 km/h (0 Bft) 100,00 %
03.09.2017 01:00 9,9 C 9,9 C 10,1 C 93 % 0 cb 1020,2 hPa 0,0 l/m 0,0 km/h (0 Bft) N 0 0 min 0,000 mm 0 W/m 8,8 C 9,9 C 0,0 km/h (0 Bft) 100,00 %
03.09.2017 01:10 9,8 C 9,8 C 9,9 C 93 % 0 cb 1020,1 hPa 0,0 l/m 0,0 km/h (0 Bft) N 0 0 min 0,000 mm 0 W/m 8,7 C 9,8 C 0,0 km/h (0 Bft) 100,00 %
03.09.2017 01:20 9,6 C 9,6 C 9,8 C 93 % 0 cb 1020,1 hPa 0,0 l/m 0,0 km/h (0 Bft) N 0 0 min 0,000 mm 0 W/m 8,5 C 9,6 C 0,0 km/h (0 Bft) 100,00 %
03.09.2017 01:30 9,4 C 9,4 C 9,6 C 93 % 0 cb 1020,0 hPa 0,0 l/m 0,0 km/h (0 Bft) N 0 0 min 0,000 mm 0 W/m 8,3 C 9,4 C 0,0 km/h (0 Bft) 100,00 %
03.09.2017 01:40 9,2 C 9,2 C 9,4 C 93 % 0 cb 1020,0 hPa 0,0 l/m 0,0 km/h (0 Bft) N 0 0 min 0,000 mm 0 W/m 8,1 C 9,2 C 0,0 km/h (0 Bft) 100,00 %
03.09.2017 01:50 9,0 C 9,0 C 9,2 C 93 % 0 cb 1019,9 hPa 0,0 l/m 0,0 km/h (0 Bft) N 0 0 min 0,000 mm 0 W/m 7,9 C 9,0 C 0,0 km/h (0 Bft) 100,00 %
03.09.2017 02:00 8,9 C 8,9 C 9,0 C 94 % 0 cb 1019,9 hPa 0,0 l/m 0,0 km/h (0 Bft) N 0 0 min 0,000 mm 0 W/m 8,0 C 8,9 C 0,0 km/h (0 Bft) 100,00 %
03.09.2017 02:10 8,9 C 8,9 C 8,9 C 94 % 0 cb 1019,9 hPa 0,0 l/m 0,0 km/h (0 Bft) O-SO 112 0 min 0,000 mm 0 W/m 8,0 C 8,9 C 4,8 km/h (1 Bft) 100,00 %
03.09.2017 02:20 8,8 C 8,8 C 8,9 C 94 % 0 cb 1020,0 hPa 0,0 l/m 0,0 km/h (0 Bft) N 0 0 min 0,000 mm 0 W/m 7,9 C 8,8 C 0,0 km/h (0 Bft) 100,00 %
03.09.2017 02:30 8,7 C 8,7 C 8,8 C 94 % 0 cb 1020,1 hPa 0,0 l/m 0,0 km/h (0 Bft) O-SO 112 0 min 0,000 mm 0 W/m 7,8 C 8,7 C 4,8 km/h (1 Bft) 97,81 %
03.09.2017 02:40 8,6 C 8,6 C 8,7 C 95 % 0 cb 1020,1 hPa 0,0 l/m 0,0 km/h (0 Bft) O-SO 112 0 min 0,000 mm 0 W/m 7,8 C 8,6 C 1,6 km/h (1 Bft) 100,00 %
03.09.2017 02:50 8,4 C 8,4 C 8,6 C 94 % 0 cb 1020,1 hPa 0,0 l/m 0,0 km/h (0 Bft) O-SO 112 0 min 0,000 mm 0 W/m 7,5 C 8,4 C 3,2 km/h (1 Bft) 100,00 %
03.09.2017 03:00 8,3 C 8,3 C 8,4 C 94 % 0 cb 1020,0 hPa 0,0 l/m 0,0 km/h (0 Bft) N 0 0 min 0,000 mm 0 W/m 7,4 C 8,3 C 0,0 km/h (0 Bft) 100,00 %
03.09.2017 03:10 8,2 C 8,2 C 8,3 C 95 % 0 cb 1019,9 hPa 0,0 l/m 0,0 km/h (0 Bft) N 0 0 min 0,000 mm 0 W/m 7,4 C 8,2 C 0,0 km/h (0 Bft) 100,00 %
03.09.2017 03:20 8,3 C 8,2 C 8,3 C 95 % 0 cb 1019,9 hPa 0,0 l/m 0,0 km/h (0 Bft) N 0 0 min 0,000 mm 0 W/m 7,5 C 8,3 C 0,0 km/h (0 Bft) 98,68 %
03.09.2017 03:30 8,4 C 8,3 C 8,4 C 96 % 0 cb 1019,9 hPa 0,0 l/m 0,0 km/h (0 Bft) N 0 0 min 0,000 mm 0 W/m 7,8 C 8,4 C 0,0 km/h (0 Bft) 100,00 %
03.09.2017 03:40 8,3 C 8,3 C 8,5 C 95 % 0 cb 1019,8 hPa 0,0 l/m 0,0 km/h (0 Bft) N 0 0 min 0,000 mm 0 W/m 7,5 C 8,3 C 0,0 km/h (0 Bft) 100,00 %
03.09.2017 03:50 8,0 C 8,0 C 8,3 C 94 % 0 cb 1019,9 hPa 0,0 l/m 0,0 km/h (0 Bft) N 0 0 min 0,000 mm 0 W/m 7,1 C 8,0 C 0,0 km/h (0 Bft) 100,00 %
03.09.2017 04:00 7,8 C 7,8 C 8,0 C 95 % 0 cb 1019,9 hPa 0,0 l/m 0,0 km/h (0 Bft) N 0 0 min 0,000 mm 0 W/m 7,0 C 7,8 C 0,0 km/h (0 Bft) 100,00 %
03.09.2017 04:10 7,7 C 7,7 C 7,8 C 95 % 0 cb 1019,8 hPa 0,0 l/m 0,0 km/h (0 Bft) N 0 0 min 0,000 mm 0 W/m 7,0 C 7,7 C 0,0 km/h (0 Bft) 100,00 %
03.09.2017 04:20 7,6 C 7,6 C 7,7 C 95 % 0 cb 1019,8 hPa 0,0 l/m 0,0 km/h (0 Bft) N 0 0 min 0,000 mm 0 W/m 6,9 C 7,6 C 0,0 km/h (0 Bft) 100,00 %
03.09.2017 04:30 7,6 C 7,5 C 7,6 C 95 % 0 cb 1019,8 hPa 0,0 l/m 0,0 km/h (0 Bft) N 0 0 min 0,000 mm 0 W/m 6,9 C 7,6 C 0,0 km/h (0 Bft) 100,00 %
03.09.2017 04:40 7,7 C 7,5 C 7,7 C 96 % 0 cb 1019,9 hPa 0,0 l/m 0,0 km/h (0 Bft) N 0 0 min 0,000 mm 0 W/m 7,1 C 7,7 C 0,0 km/h (0 Bft) 100,00 %
03.09.2017 04:50 7,8 C 7,7 C 7,8 C 96 % 0 cb 1019,8 hPa 0,0 l/m 0,0 km/h (0 Bft) N 0 0 min 0,000 mm 0 W/m 7,2 C 7,8 C 0,0 km/h (0 Bft) 100,00 %
03.09.2017 05:00 7,8 C 7,8 C 7,8 C 96 % 0 cb 1019,8 hPa 0,0 l/m 0,0 km/h (0 Bft) N 0 0 min 0,000 mm 0 W/m 7,2 C 7,8 C 0,0 km/h (0 Bft) 100,00 %
03.09.2017 05:10 7,8 C 7,8 C 7,8 C 96 % 0 cb 1019,8 hPa 0,0 l/m 0,0 km/h (0 Bft) N 0 0 min 0,000 mm 0 W/m 7,2 C 7,8 C 0,0 km/h (0 Bft) 99,56 %
03.09.2017 05:20 7,8 C 7,8 C 7,8 C 96 % 0 cb 1019,7 hPa 0,0 l/m 0,0 km/h (0 Bft) N 0 0 min 0,000 mm 0 W/m 7,2 C 7,8 C 0,0 km/h (0 Bft) 100,00 %
03.09.2017 05:30 7,9 C 7,8 C 7,9 C 96 % 0 cb 1019,5 hPa 0,0 l/m 0,0 km/h (0 Bft) N 0 0 min 0,000 mm 0 W/m 7,3 C 7,9 C 0,0 km/h (0 Bft) 100,00 %
03.09.2017 05:40 7,9 C 7,9 C 7,9 C 96 % 0 cb 1019,5 hPa 0,0 l/m 0,0 km/h (0 Bft) N 0 0 min 0,000 mm 0 W/m 7,3 C 7,9 C 0,0 km/h (0 Bft) 100,00 %
03.09.2017 05:50 7,9 C 7,9 C 8,0 C 96 % 0 cb 1019,6 hPa 0,0 l/m 0,0 km/h (0 Bft) O-SO 112 0 min 0,000 mm 0 W/m 7,3 C 7,9 C 3,2 km/h (1 Bft) 94,74 %
03.09.2017 06:00 7,8 C 7,8 C 7,9 C 96 % 0 cb 1019,5 hPa 0,0 l/m 0,0 km/h (0 Bft) N 0 0 min 0,000 mm 0 W/m 7,2 C 7,8 C 0,0 km/h (0 Bft) 100,00 %
03.09.2017 06:10 7,8 C 7,8 C 7,9 C 96 % 0 cb 1019,4 hPa 0,0 l/m 0,0 km/h (0 Bft) N 0 0 min 0,000 mm 0 W/m 7,2 C 7,8 C 0,0 km/h (0 Bft) 100,00 %
03.09.2017 06:20 7,7 C 7,7 C 7,8 C 96 % 0 cb 1019,3 hPa 0,0 l/m 0,0 km/h (0 Bft) N 0 0 min 0,000 mm 0 W/m 7,1 C 7,7 C 0,0 km/h (0 Bft) 100,00 %
03.09.2017 06:30 7,7 C 7,7 C 7,8 C 96 % 0 cb 1019,2 hPa 0,0 l/m 0,0 km/h (0 Bft) N 0 0 min 0,000 mm 0 W/m 7,1 C 7,7 C 0,0 km/h (0 Bft) 100,00 %
03.09.2017 06:40 7,6 C 7,6 C 7,7 C 96 % 0 cb 1019,2 hPa 0,0 l/m 0,0 km/h (0 Bft) N 0 0 min 0,000 mm 0 W/m 7,0 C 7,6 C 0,0 km/h (0 Bft) 100,00 %
03.09.2017 06:50 7,3 C 7,3 C 7,6 C 95 % 0 cb 1019,2 hPa 0,0 l/m 0,0 km/h (0 Bft) N 0 0 min 0,000 mm 0 W/m 6,6 C 7,3 C 0,0 km/h (0 Bft) 100,00 %
03.09.2017 07:00 7,1 C 7,1 C 7,3 C 95 % 0 cb 1019,3 hPa 0,0 l/m 0,0 km/h (0 Bft) N 0 0 min 0,000 mm 7 W/m 6,4 C 7,1 C 0,0 km/h (0 Bft) 100,00 %
03.09.2017 07:10 7,0 C 7,0 C 7,1 C 96 % 0 cb 1019,4 hPa 0,0 l/m 0,0 km/h (0 Bft) N 0 0 min 0,000 mm 14 W/m 6,4 C 7,0 C 0,0 km/h (0 Bft) 100,00 %
03.09.2017 07:20 6,9 C 6,9 C 7,0 C 96 % 0 cb 1019,3 hPa 0,0 l/m 0,0 km/h (0 Bft) N 0 0 min 0,000 mm 25 W/m 6,3 C 6,9 C 0,0 km/h (0 Bft) 100,00 %
03.09.2017 07:30 6,9 C 6,9 C 6,9 C 96 % 0 cb 1019,3 hPa 0,0 l/m 0,0 km/h (0 Bft) N 0 0 min 0,000 mm 30 W/m 6,3 C 6,9 C 0,0 km/h (0 Bft) 100,00 %
03.09.2017 07:40 7,0 C 6,9 C 7,1 C 96 % 0 cb 1019,4 hPa 0,0 l/m 0,0 km/h (0 Bft) N 0 0 min 0,000 mm 46 W/m 6,4 C 7,0 C 0,0 km/h (0 Bft) 100,00 %
03.09.2017 07:50 7,2 C 7,1 C 7,2 C 96 % 0 cb 1019,4 hPa 0,0 l/m 0,0 km/h (0 Bft) N 0 0 min 0,000 mm 54 W/m 6,6 C 7,2 C 0,0 km/h (0 Bft) 100,00 %
03.09.2017 08:00 7,2 C 7,2 C 7,3 C 96 % 0 cb 1019,3 hPa 0,0 l/m 0,0 km/h (0 Bft) N 0 0 min 0,025 mm 56 W/m 6,6 C 7,2 C 0,0 km/h (0 Bft) 100,00 %
03.09.2017 08:10 7,3 C 7,2 C 7,3 C 96 % 0 cb 1019,4 hPa 0,0 l/m 0,0 km/h (0 Bft) N 0 0 min 0,000 mm 77 W/m 6,7 C 7,3 C 0,0 km/h (0 Bft) 100,00 %
03.09.2017 08:20 7,3 C 7,2 C 7,3 C 97 % 0 cb 1019,4 hPa 0,0 l/m 0,0 km/h (0 Bft) N 0 0 min 0,000 mm 95 W/m 6,9 C 7,3 C 0,0 km/h (0 Bft) 100,00 %
03.09.2017 08:30 7,6 C 7,3 C 7,6 C 97 % 0 cb 1019,3 hPa 0,0 l/m 0,0 km/h (0 Bft) N 0 0 min 0,000 mm 107 W/m 7,2 C 7,6 C 0,0 km/h (0 Bft) 100,00 %
03.09.2017 08:40 7,8 C 7,6 C 7,8 C 97 % 0 cb 1019,3 hPa 0,0 l/m 0,0 km/h (0 Bft) N 0 0 min 0,000 mm 125 W/m 7,4 C 7,8 C 0,0 km/h (0 Bft) 100,00 %
03.09.2017 08:50 8,1 C 7,8 C 8,1 C 97 % 0 cb 1019,4 hPa 0,0 l/m 0,0 km/h (0 Bft) N 0 0 min 0,000 mm 121 W/m 7,7 C 8,1 C 0,0 km/h (0 Bft) 100,00 %
03.09.2017 09:00 8,2 C 8,0 C 8,2 C 97 % 0 cb 1019,3 hPa 0,0 l/m 0,0 km/h (0 Bft) N 0 0 min 0,051 mm 151 W/m 7,8 C 8,2 C 0,0 km/h (0 Bft) 100,00 %
03.09.2017 09:10 8,3 C 8,2 C 8,3 C 97 % 0 cb 1019,3 hPa 0,0 l/m 0,0 km/h (0 Bft) N 0 10 min 0,000 mm 179 W/m 7,9 C 8,3 C 0,0 km/h (0 Bft) 100,00 %
03.09.2017 09:20 8,5 C 8,3 C 8,5 C 97 % 0 cb 1019,4 hPa 0,0 l/m 1,6 km/h (1 Bft) SO 135 10 min 0,000 mm 179 W/m 8,1 C 8,5 C 4,8 km/h (1 Bft) 100,00 %
03.09.2017 09:30 8,7 C 8,5 C 8,7 C 97 % 0 cb 1019,5 hPa 0,0 l/m 1,6 km/h (1 Bft) S 180 10 min 0,000 mm 188 W/m 8,3 C 8,7 C 4,8 km/h (1 Bft) 100,00 %
03.09.2017 09:40 8,8 C 8,7 C 8,8 C 97 % 0 cb 1019,5 hPa 0,0 l/m 1,6 km/h (1 Bft) S 180 10 min 0,000 mm 183 W/m 8,4 C 8,8 C 3,2 km/h (1 Bft) 100,00 %
03.09.2017 09:50 8,9 C 8,8 C 8,9 C 97 % 0 cb 1019,7 hPa 0,0 l/m 0,0 km/h (0 Bft) S 180 10 min 0,000 mm 232 W/m 8,4 C 8,9 C 3,2 km/h (1 Bft) 100,00 %
03.09.2017 10:00 9,4 C 8,9 C 9,4 C 97 % 0 cb 1019,7 hPa 0,0 l/m 0,0 km/h (0 Bft) S-SW 202 10 min 0,076 mm 229 W/m 8,9 C 9,4 C 4,8 km/h (1 Bft) 100,00 %
03.09.2017 10:10 9,6 C 9,4 C 9,6 C 97 % 0 cb 1019,7 hPa 0,0 l/m 1,6 km/h (1 Bft) S 180 10 min 0,000 mm 262 W/m 9,1 C 9,6 C 4,8 km/h (1 Bft) 100,00 %
03.09.2017 10:20 9,7 C 9,5 C 9,7 C 97 % 0 cb 1019,7 hPa 0,0 l/m 1,6 km/h (1 Bft) S 180 10 min 0,000 mm 236 W/m 9,2 C 9,7 C 4,8 km/h (1 Bft) 99,56 %
03.09.2017 10:30 9,8 C 9,7 C 9,8 C 97 % 0 cb 1019,7 hPa 0,0 l/m 1,6 km/h (1 Bft) S-SO 157 10 min 0,000 mm 267 W/m 9,3 C 9,8 C 8,0 km/h (2 Bft) 100,00 %
03.09.2017 10:40 10,1 C 9,8 C 10,1 C 96 % 0 cb 1019,7 hPa 0,0 l/m 1,6 km/h (1 Bft) S 180 10 min 0,000 mm 237 W/m 9,5 C 10,1 C 6,4 km/h (2 Bft) 100,00 %
03.09.2017 10:50 10,2 C 10,1 C 10,2 C 96 % 0 cb 1019,7 hPa 0,0 l/m 1,6 km/h (1 Bft) S 180 10 min 0,000 mm 193 W/m 9,6 C 10,2 C 6,4 km/h (2 Bft) 100,00 %
03.09.2017 11:00 10,3 C 10,2 C 10,3 C 96 % 0 cb 1019,7 hPa 0,0 l/m 1,6 km/h (1 Bft) S-SW 202 10 min 0,102 mm 274 W/m 9,7 C 10,3 C 8,0 km/h (2 Bft) 100,00 %
03.09.2017 11:10 10,4 C 10,3 C 10,4 C 95 % 0 cb 1019,6 hPa 0,0 l/m 1,6 km/h (1 Bft) S-SO 157 10 min 0,000 mm 327 W/m 9,6 C 10,4 C 4,8 km/h (1 Bft) 100,00 %
03.09.2017 11:20 10,7 C 10,4 C 10,7 C 95 % 0 cb 1019,5 hPa 0,0 l/m 3,2 km/h (1 Bft) S 180 10 min 0,000 mm 299 W/m 9,9 C 10,7 C 6,4 km/h (2 Bft) 100,00 %
03.09.2017 11:30 11,0 C 10,7 C 11,0 C 94 % 0 cb 1019,5 hPa 0,0 l/m 0,0 km/h (0 Bft) S 180 10 min 0,000 mm 320 W/m 10,1 C 11,0 C 3,2 km/h (1 Bft) 100,00 %
03.09.2017 11:40 11,6 C 11,0 C 11,6 C 94 % 0 cb 1019,4 hPa 0,0 l/m 1,6 km/h (1 Bft) S 180 10 min 0,000 mm 322 W/m 10,7 C 11,6 C 6,4 km/h (2 Bft) 100,00 %
03.09.2017 11:50 12,0 C 11,6 C 12,0 C 93 % 0 cb 1019,4 hPa 0,0 l/m 1,6 km/h (1 Bft) SO 135 10 min 0,000 mm 812 W/m 10,9 C 12,0 C 4,8 km/h (1 Bft) 100,00 %
03.09.2017 12:00 12,6 C 12,0 C 12,6 C 90 % 0 cb 1019,4 hPa 0,0 l/m 3,2 km/h (1 Bft) S-SO 157 10 min 0,152 mm 810 W/m 11,0 C 12,6 C 6,4 km/h (2 Bft) 100,00 %
03.09.2017 12:10 13,2 C 12,6 C 13,2 C 92 % 0 cb 1019,3 hPa 0,0 l/m 1,6 km/h (1 Bft) SW 225 10 min 0,000 mm 837 W/m 11,9 C 13,2 C 6,4 km/h (2 Bft) 100,00 %
03.09.2017 12:20 13,9 C 13,2 C 13,9 C 88 % 0 cb 1019,2 hPa 0,0 l/m 3,2 km/h (1 Bft) S 180 10 min 0,000 mm 708 W/m 11,9 C 13,9 C 8,0 km/h (2 Bft) 100,00 %
03.09.2017 12:30 14,3 C 13,9 C 14,3 C 86 % 0 cb 1019,2 hPa 0,0 l/m 3,2 km/h (1 Bft) S 180 10 min 0,000 mm 745 W/m 12,0 C 14,3 C 8,0 km/h (2 Bft) 100,00 %
03.09.2017 12:40 14,9 C 14,3 C 14,9 C 84 % 0 cb 1019,0 hPa 0,0 l/m 4,8 km/h (1 Bft) S 180 10 min 0,000 mm 793 W/m 12,2 C 14,9 C 11,3 km/h (2 Bft) 100,00 %
03.09.2017 12:50 15,4 C 14,9 C 15,4 C 83 % 0 cb 1019,0 hPa 0,0 l/m 3,2 km/h (1 Bft) S 180 10 min 0,000 mm 722 W/m 12,5 C 15,4 C 12,9 km/h (3 Bft) 100,00 %
03.09.2017 13:00 15,8 C 15,4 C 15,8 C 80 % 0 cb 1018,8 hPa 0,0 l/m 4,8 km/h (1 Bft) S-SO 157 10 min 0,330 mm 722 W/m 12,4 C 15,8 C 9,7 km/h (2 Bft) 100,00 %
03.09.2017 13:10 16,1 C 15,8 C 16,1 C 81 % 0 cb 1018,8 hPa 0,0 l/m 4,8 km/h (1 Bft) S 180 10 min 0,000 mm 754 W/m 12,8 C 16,1 C 14,5 km/h (3 Bft) 100,00 %
03.09.2017 13:20 16,3 C 16,1 C 16,3 C 77 % 0 cb 1018,7 hPa 0,0 l/m 4,8 km/h (1 Bft) S 180 10 min 0,000 mm 754 W/m 12,3 C 16,3 C 14,5 km/h (3 Bft) 100,00 %
03.09.2017 13:30 16,5 C 16,3 C 16,5 C 77 % 0 cb 1018,7 hPa 0,0 l/m 4,8 km/h (1 Bft) S 180 10 min 0,000 mm 745 W/m 12,5 C 16,5 C 14,5 km/h (3 Bft) 100,00 %
03.09.2017 13:40 16,9 C 16,5 C 16,9 C 75 % 0 cb 1018,6 hPa 0,0 l/m 4,8 km/h (1 Bft) S 180 10 min 0,000 mm 754 W/m 12,4 C 16,9 C 11,3 km/h (2 Bft) 100,00 %
03.09.2017 13:50 17,2 C 17,0 C 17,2 C 70 % 0 cb 1018,5 hPa 0,0 l/m 4,8 km/h (1 Bft) S 180 10 min 0,000 mm 768 W/m 11,7 C 17,2 C 12,9 km/h (3 Bft) 100,00 %
03.09.2017 14:00 17,2 C 17,1 C 17,2 C 73 % 0 cb 1018,4 hPa 0,0 l/m 6,4 km/h (2 Bft) S 180 10 min 0,406 mm 768 W/m 12,3 C 17,2 C 14,5 km/h (3 Bft) 100,00 %
03.09.2017 14:10 17,2 C 17,2 C 17,3 C 72 % 0 cb 1018,3 hPa 0,0 l/m 4,8 km/h (1 Bft) S 180 10 min 0,000 mm 759 W/m 12,1 C 17,2 C 12,9 km/h (3 Bft) 100,00 %
03.09.2017 14:20 17,2 C 17,0 C 17,2 C 76 % 0 cb 1018,1 hPa 0,0 l/m 4,8 km/h (1 Bft) S-SO 157 10 min 0,000 mm 758 W/m 12,9 C 17,2 C 9,7 km/h (2 Bft) 100,00 %
03.09.2017 14:30 17,3 C 17,2 C 17,3 C 74 % 0 cb 1018,1 hPa 0,0 l/m 4,8 km/h (1 Bft) S 180 10 min 0,000 mm 766 W/m 12,6 C 17,3 C 14,5 km/h (3 Bft) 100,00 %
03.09.2017 14:40 17,2 C 17,2 C 17,3 C 73 % 0 cb 1017,9 hPa 0,0 l/m 4,8 km/h (1 Bft) S-SO 157 10 min 0,000 mm 735 W/m 12,3 C 17,2 C 14,5 km/h (3 Bft) 100,00 %
03.09.2017 14:50 17,4 C 17,2 C 17,4 C 70 % 0 cb 1017,9 hPa 0,0 l/m 4,8 km/h (1 Bft) S 180 10 min 0,000 mm 703 W/m 11,9 C 17,4 C 12,9 km/h (3 Bft) 100,00 %
03.09.2017 15:00 17,7 C 17,4 C 17,7 C 68 % 0 cb 1017,7 hPa 0,0 l/m 4,8 km/h (1 Bft) SO 135 10 min 0,356 mm 698 W/m 11,7 C 17,7 C 12,9 km/h (3 Bft) 100,00 %
03.09.2017 15:10 17,7 C 17,6 C 17,7 C 65 % 0 cb 1017,7 hPa 0,0 l/m 4,8 km/h (1 Bft) S 180 10 min 0,000 mm 679 W/m 11,0 C 17,7 C 12,9 km/h (3 Bft) 100,00 %
03.09.2017 15:20 17,6 C 17,6 C 17,7 C 68 % 0 cb 1017,6 hPa 0,0 l/m 4,8 km/h (1 Bft) S 180 10 min 0,000 mm 677 W/m 11,6 C 17,6 C 14,5 km/h (3 Bft) 100,00 %
03.09.2017 15:30 17,9 C 17,6 C 17,9 C 65 % 0 cb 1017,4 hPa 0,0 l/m 3,2 km/h (1 Bft) SW 225 10 min 0,000 mm 647 W/m 11,2 C 17,9 C 9,7 km/h (2 Bft) 100,00 %
03.09.2017 15:40 18,1 C 17,8 C 18,1 C 64 % 0 cb 1017,3 hPa 0,0 l/m 3,2 km/h (1 Bft) W-SW 247 10 min 0,000 mm 628 W/m 11,2 C 18,1 C 14,5 km/h (3 Bft) 100,00 %
03.09.2017 15:50 18,4 C 18,1 C 18,4 C 63 % 0 cb 1017,2 hPa 0,0 l/m 3,2 km/h (1 Bft) S-SW 202 10 min 0,000 mm 622 W/m 11,2 C 18,4 C 12,9 km/h (3 Bft) 100,00 %
03.09.2017 16:00 18,5 C 18,4 C 18,5 C 63 % 0 cb 1017,1 hPa 0,0 l/m 3,2 km/h (1 Bft) S-SW 202 10 min 0,356 mm 628 W/m 11,3 C 18,5 C 11,3 km/h (2 Bft) 100,00 %
03.09.2017 16:10 18,7 C 18,5 C 18,7 C 62 % 0 cb 1017,1 hPa 0,0 l/m 4,8 km/h (1 Bft) W 270 10 min 0,000 mm 631 W/m 11,3 C 18,7 C 12,9 km/h (3 Bft) 100,00 %
03.09.2017 16:20 18,8 C 18,7 C 18,8 C 61 % 0 cb 1016,9 hPa 0,0 l/m 4,8 km/h (1 Bft) S 180 10 min 0,000 mm 601 W/m 11,1 C 18,8 C 12,9 km/h (3 Bft) 100,00 %
03.09.2017 16:30 18,7 C 18,6 C 18,8 C 63 % 0 cb 1016,8 hPa 0,0 l/m 4,8 km/h (1 Bft) S-SO 157 10 min 0,000 mm 610 W/m 11,5 C 18,7 C 16,1 km/h (3 Bft) 100,00 %
03.09.2017 16:40 19,1 C 18,7 C 19,1 C 60 % 0 cb 1016,7 hPa 0,0 l/m 4,8 km/h (1 Bft) S-SW 202 10 min 0,000 mm 577 W/m 11,1 C 19,1 C 17,7 km/h (3 Bft) 99,56 %
03.09.2017 16:50 18,9 C 18,9 C 19,1 C 60 % 0 cb 1016,6 hPa 0,0 l/m 3,2 km/h (1 Bft) SO 135 10 min 0,000 mm 497 W/m 11,0 C 18,9 C 14,5 km/h (3 Bft) 100,00 %
03.09.2017 17:00 18,6 C 18,6 C 18,9 C 61 % 0 cb 1014,3 hPa 0,0 l/m 6,4 km/h (2 Bft) S-SW 202 10 min 0,330 mm 475 W/m 10,9 C 18,6 C 12,9 km/h (3 Bft) 100,00 %
03.09.2017 17:10 18,8 C 18,6 C 18,9 C 58 % 0 cb 1015,5 hPa 0,0 l/m 3,2 km/h (1 Bft) SW 225 10 min 0,000 mm 434 W/m 10,4 C 18,8 C 11,3 km/h (2 Bft) 100,00 %
03.09.2017 17:20 18,8 C 18,8 C 18,9 C 60 % 0 cb 1016,6 hPa 0,0 l/m 4,8 km/h (1 Bft) S 180 10 min 0,000 mm 399 W/m 10,9 C 18,8 C 11,3 km/h (2 Bft) 100,00 %
03.09.2017 17:30 18,7 C 18,6 C 18,8 C 60 % 0 cb 1015,9 hPa 0,0 l/m 3,2 km/h (1 Bft) S 180 10 min 0,000 mm 383 W/m 10,8 C 18,7 C 6,4 km/h (2 Bft) 100,00 %
03.09.2017 17:40 18,6 C 18,5 C 18,7 C 61 % 0 cb 1016,4 hPa 0,0 l/m 3,2 km/h (1 Bft) S 180 10 min 0,000 mm 357 W/m 10,9 C 18,6 C 8,0 km/h (2 Bft) 100,00 %
03.09.2017 17:50 18,8 C 18,6 C 18,8 C 61 % 0 cb 1016,3 hPa 0,0 l/m 3,2 km/h (1 Bft) S 180 10 min 0,000 mm 325 W/m 11,1 C 18,8 C 6,4 km/h (2 Bft) 100,00 %
03.09.2017 18:00 18,3 C 18,3 C 18,8 C 60 % 0 cb 1016,3 hPa 0,0 l/m 3,2 km/h (1 Bft) S 180 10 min 0,203 mm 192 W/m 10,4 C 18,3 C 6,4 km/h (2 Bft) 100,00 %
03.09.2017 18:10 18,2 C 18,2 C 18,3 C 59 % 0 cb 1016,3 hPa 0,0 l/m 1,6 km/h (1 Bft) W-SW 247 0 min 0,000 mm 146 W/m 10,1 C 18,2 C 6,4 km/h (2 Bft) 100,00 %
03.09.2017 18:20 17,9 C 17,9 C 18,2 C 61 % 0 cb 1016,2 hPa 0,0 l/m 0,0 km/h (0 Bft) W-SW 247 0 min 0,000 mm 120 W/m 10,3 C 17,9 C 3,2 km/h (1 Bft) 100,00 %
03.09.2017 18:30 17,6 C 17,6 C 17,9 C 62 % 0 cb 1016,3 hPa 0,0 l/m 1,6 km/h (1 Bft) SW 225 0 min 0,000 mm 83 W/m 10,2 C 17,6 C 4,8 km/h (1 Bft) 100,00 %
03.09.2017 18:40 17,2 C 17,2 C 17,6 C 64 % 0 cb 1016,2 hPa 0,0 l/m 0,0 km/h (0 Bft) SW 225 0 min 0,000 mm 67 W/m 10,3 C 17,2 C 1,6 km/h (1 Bft) 100,00 %
03.09.2017 18:50 16,8 C 16,8 C 17,2 C 68 % 0 cb 1016,1 hPa 0,0 l/m 0,0 km/h (0 Bft) SW 225 0 min 0,000 mm 49 W/m 10,9 C 16,8 C 3,2 km/h (1 Bft) 100,00 %
03.09.2017 19:00 16,2 C 16,2 C 16,7 C 69 % 0 cb 1016,2 hPa 0,0 l/m 1,6 km/h (1 Bft) W-NW 292 0 min 0,051 mm 47 W/m 10,5 C 16,2 C 4,8 km/h (1 Bft) 100,00 %
03.09.2017 19:10 15,9 C 15,9 C 16,2 C 70 % 0 cb 1016,2 hPa 0,0 l/m 0,0 km/h (0 Bft) W-NW 292 0 min 0,000 mm 39 W/m 10,4 C 15,9 C 3,2 km/h (1 Bft) 100,00 %
03.09.2017 19:20 15,5 C 15,5 C 15,8 C 71 % 0 cb 1016,2 hPa 0,0 l/m 0,0 km/h (0 Bft) W-NW 292 0 min 0,000 mm 39 W/m 10,3 C 15,5 C 1,6 km/h (1 Bft) 100,00 %
03.09.2017 19:30 15,2 C 15,2 C 15,5 C 73 % 0 cb 1016,2 hPa 0,0 l/m 0,0 km/h (0 Bft) W-NW 292 0 min 0,000 mm 32 W/m 10,4 C 15,2 C 1,6 km/h (1 Bft) 100,00 %
03.09.2017 19:40 14,8 C 14,8 C 15,2 C 74 % 0 cb 1016,2 hPa 0,0 l/m 0,0 km/h (0 Bft) N 0 0 min 0,000 mm 21 W/m 10,2 C 14,8 C 0,0 km/h (0 Bft) 100,00 %
03.09.2017 19:50 14,5 C 14,5 C 14,8 C 76 % 0 cb 1016,3 hPa 0,0 l/m 0,0 km/h (0 Bft) N 0 0 min 0,000 mm 16 W/m 10,3 C 14,5 C 0,0 km/h (0 Bft) 100,00 %
03.09.2017 20:00 14,1 C 14,1 C 14,5 C 78 % 0 cb 1016,4 hPa 0,0 l/m 0,0 km/h (0 Bft) N 0 0 min 0,025 mm 9 W/m 10,3 C 14,1 C 0,0 km/h (0 Bft) 100,00 %
03.09.2017 20:10 13,6 C 13,6 C 14,1 C 79 % 0 cb 1016,4 hPa 0,0 l/m 0,0 km/h (0 Bft) N 0 0 min 0,000 mm 5 W/m 10,0 C 13,6 C 0,0 km/h (0 Bft) 100,00 %
03.09.2017 20:20 13,1 C 13,1 C 13,6 C 80 % 0 cb 1016,5 hPa 0,0 l/m 0,0 km/h (0 Bft) N 0 0 min 0,000 mm 0 W/m 9,7 C 13,1 C 0,0 km/h (0 Bft) 100,00 %
03.09.2017 20:30 12,7 C 12,7 C 13,1 C 80 % 0 cb 1016,4 hPa 0,0 l/m 0,0 km/h (0 Bft) W-NW 292 0 min 0,000 mm 0 W/m 9,3 C 12,7 C 1,6 km/h (1 Bft) 100,00 %
03.09.2017 20:40 12,4 C 12,4 C 12,7 C 81 % 0 cb 1016,4 hPa 0,0 l/m 1,6 km/h (1 Bft) NW 315 0 min 0,000 mm 0 W/m 9,2 C 12,4 C 3,2 km/h (1 Bft) 99,56 %
03.09.2017 20:50 12,2 C 12,2 C 12,4 C 82 % 0 cb 1016,5 hPa 0,0 l/m 0,0 km/h (0 Bft) NW 315 0 min 0,000 mm 0 W/m 9,2 C 12,2 C 3,2 km/h (1 Bft) 100,00 %
03.09.2017 21:00 11,8 C 11,8 C 12,2 C 83 % 0 cb 1016,6 hPa 0,0 l/m 0,0 km/h (0 Bft) NW 315 0 min 0,000 mm 0 W/m 9,0 C 11,8 C 3,2 km/h (1 Bft) 100,00 %
03.09.2017 21:10 11,7 C 11,7 C 11,8 C 84 % 0 cb 1016,6 hPa 0,0 l/m 0,0 km/h (0 Bft) N 0 0 min 0,000 mm 0 W/m 9,1 C 11,7 C 0,0 km/h (0 Bft) 100,00 %
03.09.2017 21:20 11,4 C 11,4 C 11,7 C 85 % 0 cb 1016,7 hPa 0,0 l/m 0,0 km/h (0 Bft) N 0 0 min 0,000 mm 0 W/m 9,0 C 11,4 C 0,0 km/h (0 Bft) 100,00 %
03.09.2017 21:30 11,3 C 11,3 C 11,4 C 87 % 0 cb 1016,7 hPa 0,0 l/m 0,0 km/h (0 Bft) N 0 0 min 0,000 mm 0 W/m 9,2 C 11,3 C 0,0 km/h (0 Bft) 100,00 %
03.09.2017 21:40 11,1 C 11,1 C 11,3 C 87 % 0 cb 1016,7 hPa 0,0 l/m 0,0 km/h (0 Bft) N 0 0 min 0,000 mm 0 W/m 9,0 C 11,1 C 0,0 km/h (0 Bft) 100,00 %
03.09.2017 21:50 10,9 C 10,9 C 11,1 C 88 % 0 cb 1016,7 hPa 0,0 l/m 0,0 km/h (0 Bft) N 0 0 min 0,000 mm 0 W/m 9,0 C 10,9 C 0,0 km/h (0 Bft) 100,00 %
03.09.2017 22:00 10,7 C 10,7 C 10,8 C 89 % 0 cb 1016,8 hPa 0,0 l/m 0,0 km/h (0 Bft) N 0 0 min 0,000 mm 0 W/m 9,0 C 10,7 C 0,0 km/h (0 Bft) 100,00 %
03.09.2017 22:10 10,6 C 10,6 C 10,7 C 90 % 0 cb 1016,8 hPa 0,0 l/m 0,0 km/h (0 Bft) N 0 0 min 0,000 mm 0 W/m 9,0 C 10,6 C 0,0 km/h (0 Bft) 100,00 %
03.09.2017 22:20 10,6 C 10,6 C 10,6 C 90 % 0 cb 1016,8 hPa 0,0 l/m 0,0 km/h (0 Bft) NW 315 0 min 0,000 mm 0 W/m 9,0 C 10,6 C 3,2 km/h (1 Bft) 100,00 %
03.09.2017 22:30 10,5 C 10,5 C 10,6 C 90 % 0 cb 1016,8 hPa 0,0 l/m 0,0 km/h (0 Bft) N-NW 337 0 min 0,000 mm 0 W/m 8,9 C 10,5 C 3,2 km/h (1 Bft) 100,00 %
03.09.2017 22:40 10,6 C 10,5 C 10,6 C 91 % 0 cb 1016,8 hPa 0,0 l/m 0,0 km/h (0 Bft) N-NW 337 0 min 0,000 mm 0 W/m 9,2 C 10,6 C 1,6 km/h (1 Bft) 100,00 %
03.09.2017 22:50 10,4 C 10,4 C 10,5 C 90 % 0 cb 1016,8 hPa 0,0 l/m 0,0 km/h (0 Bft) N-NW 337 0 min 0,000 mm 0 W/m 8,8 C 10,4 C 1,6 km/h (1 Bft) 100,00 %
03.09.2017 23:00 10,2 C 10,2 C 10,4 C 91 % 0 cb 1016,8 hPa 0,0 l/m 0,0 km/h (0 Bft) N 0 0 min 0,000 mm 0 W/m 8,8 C 10,2 C 0,0 km/h (0 Bft) 100,00 %
03.09.2017 23:10 10,1 C 10,1 C 10,2 C 91 % 0 cb 1016,7 hPa 0,0 l/m 0,0 km/h (0 Bft) N 0 0 min 0,000 mm 0 W/m 8,7 C 10,1 C 0,0 km/h (0 Bft) 100,00 %
03.09.2017 23:20 9,9 C 9,9 C 10,1 C 91 % 0 cb 1016,7 hPa 0,0 l/m 0,0 km/h (0 Bft) N 0 0 min 0,000 mm 0 W/m 8,5 C 9,9 C 0,0 km/h (0 Bft) 100,00 %
03.09.2017 23:30 9,9 C 9,9 C 10,0 C 92 % 0 cb 1016,7 hPa 0,0 l/m 0,0 km/h (0 Bft) N-NW 337 0 min 0,000 mm 0 W/m 8,7 C 9,9 C 1,6 km/h (1 Bft) 100,00 %
03.09.2017 23:40 9,8 C 9,8 C 9,9 C 92 % 0 cb 1016,8 hPa 0,0 l/m 0,0 km/h (0 Bft) N 0 0 min 0,000 mm 0 W/m 8,6 C 9,8 C 0,0 km/h (0 Bft) 100,00 %
03.09.2017 23:50 9,7 C 9,7 C 9,8 C 92 % 0 cb 1016,7 hPa 0,0 l/m 0,0 km/h (0 Bft) N 0 0 min 0,000 mm 0 W/m 8,5 C 9,7 C 0,0 km/h (0 Bft) 100,00 %
_ Min-Zeit 07:20 07:20 07:30 17:10 00:00 17:00 - 00:00 - - - - - 07:20 07:20 00:00 05:50
Minimum _ 6,9 C 6,9 C 6,9 C 58 % 0 cb 1014,3 hPa - 0,0 km/h (0 Bft) - - - - - 6,3 C 6,9 C 0,0 km/h (0 Bft) 94,74 %
_ Max-Zeit 16:40 16:50 16:40 08:20 00:00 00:00 00:00 14:00 - - 09:10 14:00 12:10 14:20 16:40 16:40 00:00
Maximum _ 19,1 C 18,9 C 19,1 C 97 % 0 cb 1020,6 hPa 0,0 l/m 6,4 km/h
S (2 Bft)
- - 10 min 0,406 mm 837 W/m 12,9 C 19,1 C 17,7 km/h
S-SW (3 Bft)
100,00 %
Durchschnitt _ 11,9 C 11,8 C 12,0 C 85 % 0 cb 1018,4 hPa #0,0 l/m 1,3 km/h (1 Bft) S - #9:00 h #2,463 mm 375 W/m 9,3 C 11,9 C 4,1 km/h (1 Bft) 99,93 %
Wetterstation Gdesweiler